Terminal Aerodrome Forecast
Issued by NWS

Current Version | Previous Version | Text Only | Print | Product List | Glossary On
Versions: 1 2 3 4 5 6 7 8 9 10 11 12 13 14 15 16 17 18 19 20 21 22 23 24 25 26 27 28 29 30 31 32 33 34 35 36
000 FTUS41 KOKX 271239 AAA TAFHPN TAF AMD KHPN 271239Z 2713/2812 VRB03KT 1 1/2SM -DZ BR BKN003 OVC008 TEMPO 2713/2716 1/2SM -DZ FG VV001 FM271600 VRB05KT P6SM BKN008 OVC015 FM271700 14007KT P6SM SCT010 BKN025 FM272100 14007KT P6SM SCT025 BKN040 FM272300 13006KT 6SM BR BKN007 OVC015 FM280100 VRB04KT 4SM BR OVC008 FM280300 VRB03KT 2SM -DZ BR OVC004 FM280600 VRB02KT 1/2SM -DZ FG OVC004 AMD NOT SKED=

USA.gov is the U.S. government's official web portal to all federal, state and local government web resources and services.